sensor_id;sensor_type;location;lat;lon;timestamp;pressure;altitude;pressure_sealevel;temperature;humidity
16100;BME280;8154;50.830;12.082;2022-08-21T00:02:14;99452.06;;;25.02;51.43
16100;BME280;8154;50.830;12.082;2022-08-21T00:04:59;99441.38;;;25.02;51.24
16100;BME280;8154;50.830;12.082;2022-08-21T00:07:43;99439.13;;;24.99;51.23
16100;BME280;8154;50.830;12.082;2022-08-21T00:10:27;99445.50;;;24.98;51.29
16100;BME280;8154;50.830;12.082;2022-08-21T00:13:13;99436.44;;;24.99;51.19
16100;BME280;8154;50.830;12.082;2022-08-21T00:15:58;99435.41;;;25.00;51.28
16100;BME280;8154;50.830;12.082;2022-08-21T00:18:43;99437.06;;;25.01;51.14
16100;BME280;8154;50.830;12.082;2022-08-21T00:21:27;99431.72;;;25.01;51.03
16100;BME280;8154;50.830;12.082;2022-08-21T00:24:12;99429.25;;;25.00;51.28
16100;BME280;8154;50.830;12.082;2022-08-21T00:26:56;99435.19;;;25.02;50.93
16100;BME280;8154;50.830;12.082;2022-08-21T00:29:40;99433.56;;;25.01;51.01
16100;BME280;8154;50.830;12.082;2022-08-21T00:32:26;99439.13;;;24.99;50.82
16100;BME280;8154;50.830;12.082;2022-08-21T00:35:14;99430.06;;;25.00;51.06
16100;BME280;8154;50.830;12.082;2022-08-21T00:37:59;99438.28;;;24.99;51.17
16100;BME280;8154;50.830;12.082;2022-08-21T00:40:47;99433.56;;;24.94;51.17
16100;BME280;8154;50.830;12.082;2022-08-21T00:43:34;99436.22;;;24.94;50.99
16100;BME280;8154;50.830;12.082;2022-08-21T00:46:19;99431.50;;;24.96;51.10
16100;BME280;8154;50.830;12.082;2022-08-21T00:49:05;99431.50;;;24.96;51.31
16100;BME280;8154;50.830;12.082;2022-08-21T00:51:55;99432.72;;;24.94;51.04
16100;BME280;8154;50.830;12.082;2022-08-21T00:54:42;99437.88;;;24.95;51.11
16100;BME280;8154;50.830;12.082;2022-08-21T00:57:34;99438.69;;;24.89;51.27
16100;BME280;8154;50.830;12.082;2022-08-21T01:00:28;99443.03;;;24.90;51.17
16100;BME280;8154;50.830;12.082;2022-08-21T01:03:16;99436.00;;;24.89;51.32
16100;BME280;8154;50.830;12.082;2022-08-21T01:06:01;99449.16;;;24.91;50.84
16100;BME280;8154;50.830;12.082;2022-08-21T01:08:47;99450.63;;;24.93;51.25
16100;BME280;8154;50.830;12.082;2022-08-21T01:11:31;99447.97;;;24.93;51.12
16100;BME280;8154;50.830;12.082;2022-08-21T01:14:16;99454.94;;;24.94;51.21
16100;BME280;8154;50.830;12.082;2022-08-21T01:17:02;99447.75;;;24.95;51.17
16100;BME280;8154;50.830;12.082;2022-08-21T01:19:47;99451.25;;;24.95;50.71
16100;BME280;8154;50.830;12.082;2022-08-21T01:22:32;99440.56;;;24.95;51.03
16100;BME280;8154;50.830;12.082;2022-08-21T01:25:18;99448.38;;;24.90;51.30
16100;BME280;8154;50.830;12.082;2022-08-21T01:28:12;99444.03;;;24.89;51.34
16100;BME280;8154;50.830;12.082;2022-08-21T01:30:58;99444.25;;;24.94;50.69
16100;BME280;8154;50.830;12.082;2022-08-21T01:33:43;99435.22;;;24.95;50.82
16100;BME280;8154;50.830;12.082;2022-08-21T01:36:28;99437.88;;;24.95;50.99
16100;BME280;8154;50.830;12.082;2022-08-21T01:39:13;99436.22;;;24.94;51.01
16100;BME280;8154;50.830;12.082;2022-08-21T01:41:58;99424.69;;;24.94;50.97
16100;BME280;8154;50.830;12.082;2022-08-21T01:44:42;99425.53;;;24.94;50.72
16100;BME280;8154;50.830;12.082;2022-08-21T01:47:27;99418.53;;;24.93;50.67
16100;BME280;8154;50.830;12.082;2022-08-21T01:50:15;99419.34;;;24.94;51.06
16100;BME280;8154;50.830;12.082;2022-08-21T01:52:59;99408.66;;;24.94;50.70
16100;BME280;8154;50.830;12.082;2022-08-21T01:55:44;99408.06;;;24.92;50.91
16100;BME280;8154;50.830;12.082;2022-08-21T01:58:28;99411.34;;;24.87;51.11
16100;BME280;8154;50.830;12.082;2022-08-21T02:01:14;99404.97;;;24.88;50.89
16100;BME280;8154;50.830;12.082;2022-08-21T02:03:58;99404.13;;;24.88;50.69
16100;BME280;8154;50.830;12.082;2022-08-21T02:06:43;99414.63;;;24.83;51.17
16100;BME280;8154;50.830;12.082;2022-08-21T02:09:28;99415.44;;;24.83;51.03
16100;BME280;8154;50.830;12.082;2022-08-21T02:12:12;99418.94;;;24.84;50.86
16100;BME280;8154;50.830;12.082;2022-08-21T02:14:57;99417.72;;;24.86;50.65
16100;BME280;8154;50.830;12.082;2022-08-21T02:17:47;99422.44;;;24.84;50.64
16100;BME280;8154;50.830;12.082;2022-08-21T02:20:45;99428.81;;;24.83;51.12
16100;BME280;8154;50.830;12.082;2022-08-21T02:23:29;99424.28;;;24.84;50.98
16100;BME280;8154;50.830;12.082;2022-08-21T02:26:14;99425.72;;;24.86;51.03
16100;BME280;8154;50.830;12.082;2022-08-21T02:28:58;99431.06;;;24.86;51.05
16100;BME280;8154;50.830;12.082;2022-08-21T02:31:43;99428.19;;;24.88;50.82
16100;BME280;8154;50.830;12.082;2022-08-21T02:34:27;99435.41;;;24.87;50.82
16100;BME280;8154;50.830;12.082;2022-08-21T02:37:12;99431.91;;;24.87;50.70
16100;BME280;8154;50.830;12.082;2022-08-21T02:39:56;99430.88;;;24.88;50.75
16100;BME280;8154;50.830;12.082;2022-08-21T02:42:40;99430.06;;;24.87;50.61
16100;BME280;8154;50.830;12.082;2022-08-21T02:45:25;99431.06;;;24.86;50.50
16100;BME280;8154;50.830;12.082;2022-08-21T02:48:12;99433.94;;;24.85;50.63
16100;BME280;8154;50.830;12.082;2022-08-21T02:51:03;99433.94;;;24.85;50.26
16100;BME280;8154;50.830;12.082;2022-08-21T02:53:49;99427.19;;;24.82;50.39
16100;BME280;8154;50.830;12.082;2022-08-21T02:56:34;99427.19;;;24.82;50.45
16100;BME280;8154;50.830;12.082;2022-08-21T02:59:18;99431.69;;;24.88;50.45
16100;BME280;8154;50.830;12.082;2022-08-21T03:02:02;99431.47;;;24.83;50.27
16100;BME280;8154;50.830;12.082;2022-08-21T03:04:47;99437.88;;;24.82;50.29
16100;BME280;8154;50.830;12.082;2022-08-21T03:07:31;99438.69;;;24.83;50.51
16100;BME280;8154;50.830;12.082;2022-08-21T03:10:16;99430.06;;;24.81;50.45
16100;BME280;8154;50.830;12.082;2022-08-21T03:13:01;99425.53;;;24.81;50.41
16100;BME280;8154;50.830;12.082;2022-08-21T03:15:48;99428.41;;;24.80;50.61
16100;BME280;8154;50.830;12.082;2022-08-21T03:18:33;99433.34;;;24.76;50.70
16100;BME280;8154;50.830;12.082;2022-08-21T03:21:18;99429.44;;;24.79;50.10
16100;BME280;8154;50.830;12.082;2022-08-21T03:24:02;99436.22;;;24.81;50.22
16100;BME280;8154;50.830;12.082;2022-08-21T03:26:47;99430.88;;;24.81;50.36
16100;BME280;8154;50.830;12.082;2022-08-21T03:29:31;99430.47;;;24.78;50.27
16100;BME280;8154;50.830;12.082;2022-08-21T03:32:15;99442.00;;;24.78;50.70
16100;BME280;8154;50.830;12.082;2022-08-21T03:35:00;99431.88;;;24.80;50.21
16100;BME280;8154;50.830;12.082;2022-08-21T03:37:44;99441.56;;;24.81;50.40
16100;BME280;8154;50.830;12.082;2022-08-21T03:40:28;99432.72;;;24.81;50.24
16100;BME280;8154;50.830;12.082;2022-08-21T03:43:13;99444.88;;;24.77;50.30
16100;BME280;8154;50.830;12.082;2022-08-21T03:46:00;99442.00;;;24.78;50.50
16100;BME280;8154;50.830;12.082;2022-08-21T03:48:45;99434.78;;;24.79;50.30
16100;BME280;8154;50.830;12.082;2022-08-21T03:51:30;99433.34;;;24.76;50.20
16100;BME280;8154;50.830;12.082;2022-08-21T03:54:16;99440.72;;;24.74;50.37
16100;BME280;8154;50.830;12.082;2022-08-21T03:57:02;99440.72;;;24.74;50.26
16100;BME280;8154;50.830;12.082;2022-08-21T03:59:47;99446.47;;;24.71;50.40
16100;BME280;8154;50.830;12.082;2022-08-21T04:02:31;99446.47;;;24.71;50.27
16100;BME280;8154;50.830;12.082;2022-08-21T04:05:18;99438.66;;;24.70;49.97
16100;BME280;8154;50.830;12.082;2022-08-21T04:08:11;99450.78;;;24.72;50.32
16100;BME280;8154;50.830;12.082;2022-08-21T04:10:56;99452.66;;;24.72;50.26
16100;BME280;8154;50.830;12.082;2022-08-21T04:13:42;99451.84;;;24.71;50.06
16100;BME280;8154;50.830;12.082;2022-08-21T04:16:26;99457.19;;;24.71;50.23
16100;BME280;8154;50.830;12.082;2022-08-21T04:19:12;99460.25;;;24.68;50.20
16100;BME280;8154;50.830;12.082;2022-08-21T04:21:59;99450.78;;;24.72;49.85
16100;BME280;8154;50.830;12.082;2022-08-21T04:24:44;99456.97;;;24.73;50.01
16100;BME280;8154;50.830;12.082;2022-08-21T04:27:28;99459.84;;;24.71;49.83
16100;BME280;8154;50.830;12.082;2022-08-21T04:30:14;99467.66;;;24.66;50.18
16100;BME280;8154;50.830;12.082;2022-08-21T04:32:59;99465.59;;;24.68;49.66
16100;BME280;8154;50.830;12.082;2022-08-21T04:35:44;99469.31;;;24.67;49.97
16100;BME280;8154;50.830;12.082;2022-08-21T04:38:28;99467.44;;;24.68;49.65
16100;BME280;8154;50.830;12.082;2022-08-21T04:41:15;99471.56;;;24.70;49.63
16100;BME280;8154;50.830;12.082;2022-08-21T04:43:59;99469.09;;;24.69;49.46
16100;BME280;8154;50.830;12.082;2022-08-21T04:46:44;99474.66;;;24.67;49.41
16100;BME280;8154;50.830;12.082;2022-08-21T04:49:28;99468.28;;;24.68;49.31
16100;BME280;8154;50.830;12.082;2022-08-21T04:52:15;99469.69;;;24.64;49.65
16100;BME280;8154;50.830;12.082;2022-08-21T04:55:01;99464.97;;;24.66;49.28
16100;BME280;8154;50.830;12.082;2022-08-21T04:57:45;99474.00;;;24.65;49.46
16100;BME280;8154;50.830;12.082;2022-08-21T05:00:30;99474.88;;;24.66;49.41
16100;BME280;8154;50.830;12.082;2022-08-21T05:03:16;99470.69;;;24.63;49.47
16100;BME280;8154;50.830;12.082;2022-08-21T05:06:04;99483.84;;;24.65;49.51
16100;BME280;8154;50.830;12.082;2022-08-21T05:08:53;99482.41;;;24.62;49.65
16100;BME280;8154;50.830;12.082;2022-08-21T05:11:39;99482.22;;;24.64;49.48
16100;BME280;8154;50.830;12.082;2022-08-21T05:14:24;99483.06;;;24.64;49.28
16100;BME280;8154;50.830;12.082;2022-08-21T05:17:11;99487.97;;;24.61;49.69
16100;BME280;8154;50.830;12.082;2022-08-21T05:19:55;99481.78;;;24.60;49.45
16100;BME280;8154;50.830;12.082;2022-08-21T05:22:40;99484.47;;;24.60;49.54
16100;BME280;8154;50.830;12.082;2022-08-21T05:25:25;99492.47;;;24.60;49.29
16100;BME280;8154;50.830;12.082;2022-08-21T05:28:10;99493.50;;;24.59;49.37
16100;BME280;8154;50.830;12.082;2022-08-21T05:33:39;99483.47;;;24.61;49.55
16100;BME280;8154;50.830;12.082;2022-08-21T05:36:23;99498.66;;;24.61;49.46
16100;BME280;8154;50.830;12.082;2022-08-21T05:39:08;99494.56;;;24.58;49.32
16100;BME280;8154;50.830;12.082;2022-08-21T05:41:52;99491.88;;;24.58;49.38
16100;BME280;8154;50.830;12.082;2022-08-21T05:44:36;99496.19;;;24.59;49.39
16100;BME280;8154;50.830;12.082;2022-08-21T05:47:20;99496.81;;;24.61;49.33
16100;BME280;8154;50.830;12.082;2022-08-21T05:50:05;99493.50;;;24.59;49.51
16100;BME280;8154;50.830;12.082;2022-08-21T05:52:49;99500.50;;;24.60;49.27
16100;BME280;8154;50.830;12.082;2022-08-21T05:55:35;99495.97;;;24.61;49.43
16100;BME280;8154;50.830;12.082;2022-08-21T05:58:21;99493.09;;;24.62;49.28
16100;BME280;8154;50.830;12.082;2022-08-21T06:01:07;99494.94;;;24.62;49.22
16100;BME280;8154;50.830;12.082;2022-08-21T06:03:52;99496.81;;;24.61;49.29
16100;BME280;8154;50.830;12.082;2022-08-21T06:06:37;99492.47;;;24.60;49.22
16100;BME280;8154;50.830;12.082;2022-08-21T06:09:21;99490.63;;;24.61;49.17
16100;BME280;8154;50.830;12.082;2022-08-21T06:12:11;99498.66;;;24.61;49.55
16100;BME280;8154;50.830;12.082;2022-08-21T06:14:55;99504.00;;;24.61;49.65
16100;BME280;8154;50.830;12.082;2022-08-21T06:17:39;99497.03;;;24.60;49.79
16100;BME280;8154;50.830;12.082;2022-08-21T06:20:23;99502.75;;;24.57;49.56
16100;BME280;8154;50.830;12.082;2022-08-21T06:23:08;99511.16;;;24.54;49.50
16100;BME280;8154;50.830;12.082;2022-08-21T06:25:53;99512.41;;;24.58;49.86
16100;BME280;8154;50.830;12.082;2022-08-21T06:28:38;99507.06;;;24.58;49.64
16100;BME280;8154;50.830;12.082;2022-08-21T06:31:24;99510.97;;;24.62;49.60
16100;BME280;8154;50.830;12.082;2022-08-21T06:34:09;99506.47;;;24.62;49.32
16100;BME280;8154;50.830;12.082;2022-08-21T06:36:53;99515.75;;;24.66;49.29
16100;BME280;8154;50.830;12.082;2022-08-21T06:39:37;99518.41;;;24.66;49.63
16100;BME280;8154;50.830;12.082;2022-08-21T06:42:21;99518.22;;;24.68;49.07
16100;BME280;8154;50.830;12.082;2022-08-21T06:45:06;99511.03;;;24.68;49.27
16100;BME280;8154;50.830;12.082;2022-08-21T06:47:50;99514.53;;;24.69;49.11
16100;BME280;8154;50.830;12.082;2022-08-21T06:50:35;99515.97;;;24.71;49.63
16100;BME280;8154;50.830;12.082;2022-08-21T06:53:20;99516.59;;;24.67;49.50
16100;BME280;8154;50.830;12.082;2022-08-21T06:56:05;99511.25;;;24.67;49.65
16100;BME280;8154;50.830;12.082;2022-08-21T06:58:49;99511.03;;;24.68;49.35
16100;BME280;8154;50.830;12.082;2022-08-21T07:01:33;99508.56;;;24.67;49.40
16100;BME280;8154;50.830;12.082;2022-08-21T07:04:17;99511.81;;;24.62;49.37
16100;BME280;8154;50.830;12.082;2022-08-21T07:07:02;99513.25;;;24.65;49.39
16100;BME280;8154;50.830;12.082;2022-08-21T07:09:46;99510.56;;;24.65;49.35
16100;BME280;8154;50.830;12.082;2022-08-21T07:12:30;99512.44;;;24.64;49.42
16100;BME280;8154;50.830;12.082;2022-08-21T07:15:15;99516.97;;;24.64;49.16
16100;BME280;8154;50.830;12.082;2022-08-21T07:17:59;99514.69;;;24.61;49.65
16100;BME280;8154;50.830;12.082;2022-08-21T07:20:44;99512.00;;;24.61;49.40
16100;BME280;8154;50.830;12.082;2022-08-21T07:23:32;99513.66;;;24.62;49.22
16100;BME280;8154;50.830;12.082;2022-08-21T07:26:19;99511.81;;;24.62;49.28
16100;BME280;8154;50.830;12.082;2022-08-21T07:29:05;99508.09;;;24.63;49.29
16100;BME280;8154;50.830;12.082;2022-08-21T07:31:49;99505.22;;;24.65;49.29
16100;BME280;8154;50.830;12.082;2022-08-21T07:34:33;99501.13;;;24.62;49.29
16100;BME280;8154;50.830;12.082;2022-08-21T07:37:17;99501.31;;;24.61;49.46
16100;BME280;8154;50.830;12.082;2022-08-21T07:40:02;99493.31;;;24.61;49.22
16100;BME280;8154;50.830;12.082;2022-08-21T07:42:48;99498.91;;;24.66;49.15
16100;BME280;8154;50.830;12.082;2022-08-21T07:45:35;99496.03;;;24.67;49.23
16100;BME280;8154;50.830;12.082;2022-08-21T07:48:20;99487.19;;;24.67;49.04
16100;BME280;8154;50.830;12.082;2022-08-21T07:51:08;99494.38;;;24.66;49.30
16100;BME280;8154;50.830;12.082;2022-08-21T07:53:54;99492.97;;;24.70;49.08
16100;BME280;8154;50.830;12.082;2022-08-21T07:56:40;99490.69;;;24.74;49.05
16100;BME280;8154;50.830;12.082;2022-08-21T07:59:24;99487.22;;;24.73;49.04
16100;BME280;8154;50.830;12.082;2022-08-21T08:02:08;99493.16;;;24.75;48.98
16100;BME280;8154;50.830;12.082;2022-08-21T08:04:53;99489.28;;;24.78;48.58
16100;BME280;8154;50.830;12.082;2022-08-21T08:07:38;99491.09;;;24.77;48.76
16100;BME280;8154;50.830;12.082;2022-08-21T08:10:22;99483.94;;;24.78;48.92
16100;BME280;8154;50.830;12.082;2022-08-21T08:13:07;99482.06;;;24.85;48.60
16100;BME280;8154;50.830;12.082;2022-08-21T08:15:51;99476.09;;;24.89;48.29
16100;BME280;8154;50.830;12.082;2022-08-21T08:18:37;99481.44;;;24.89;48.34
16100;BME280;8154;50.830;12.082;2022-08-21T08:21:21;99479.63;;;24.96;48.06
16100;BME280;8154;50.830;12.082;2022-08-21T08:24:05;99480.25;;;24.98;48.28
16100;BME280;8154;50.830;12.082;2022-08-21T08:26:50;99473.66;;;25.01;47.98
16100;BME280;8154;50.830;12.082;2022-08-21T08:29:34;99478.81;;;25.02;47.85
16100;BME280;8154;50.830;12.082;2022-08-21T08:32:19;99477.16;;;25.01;47.91
16100;BME280;8154;50.830;12.082;2022-08-21T08:35:05;99474.28;;;25.03;47.65
16100;BME280;8154;50.830;12.082;2022-08-21T08:37:50;99460.50;;;24.99;47.78
16100;BME280;8154;50.830;12.082;2022-08-21T08:41:13;99472.63;;;25.02;47.86
16100;BME280;8154;50.830;12.082;2022-08-21T08:44:03;99466.88;;;24.98;47.63
16100;BME280;8154;50.830;12.082;2022-08-21T08:46:50;99462.53;;;24.97;47.92
16100;BME280;8154;50.830;12.082;2022-08-21T08:50:17;99471.19;;;24.99;47.81
16100;BME280;8154;50.830;12.082;2022-08-21T08:53:28;99474.28;;;24.96;47.88
16100;BME280;8154;50.830;12.082;2022-08-21T08:56:14;99472.66;;;24.95;48.07
16100;BME280;8154;50.830;12.082;2022-08-21T08:59:07;99473.25;;;24.97;47.90
16100;BME280;8154;50.830;12.082;2022-08-21T09:01:52;99472.03;;;25.00;47.88
16100;BME280;8154;50.830;12.082;2022-08-21T09:04:37;99468.94;;;25.03;47.61
16100;BME280;8154;50.830;12.082;2022-08-21T09:22:38;99464.81;;;25.13;47.09
16100;BME280;8154;50.830;12.082;2022-08-21T09:25:31;99465.66;;;25.07;47.26
16100;BME280;8154;50.830;12.082;2022-08-21T09:28:16;99464.19;;;25.11;47.12
16100;BME280;8154;50.830;12.082;2022-08-21T09:31:06;99467.50;;;25.13;46.80
16100;BME280;8154;50.830;12.082;2022-08-21T09:34:01;99466.03;;;25.11;46.95
16100;BME280;8154;50.830;12.082;2022-08-21T09:36:48;99468.53;;;25.06;47.19
16100;BME280;8154;50.830;12.082;2022-08-21T09:39:38;99469.97;;;25.08;46.87
16100;BME280;8154;50.830;12.082;2022-08-21T09:42:27;99465.84;;;25.06;46.79
16100;BME280;8154;50.830;12.082;2022-08-21T09:45:17;99472.44;;;25.10;46.99
16100;BME280;8154;50.830;12.082;2022-08-21T09:48:22;99472.00;;;25.13;46.66
16100;BME280;8154;50.830;12.082;2022-08-21T09:51:30;99469.56;;;25.11;46.59
16100;BME280;8154;50.830;12.082;2022-08-21T09:54:17;99467.50;;;25.07;46.56
16100;BME280;8154;50.830;12.082;2022-08-21T10:00:30;99469.75;;;25.03;46.62
16100;BME280;8154;50.830;12.082;2022-08-21T10:03:19;99462.75;;;25.02;46.70
16100;BME280;8154;50.830;12.082;2022-08-21T10:06:06;99468.75;;;25.04;46.60
16100;BME280;8154;50.830;12.082;2022-08-21T10:09:14;99459.88;;;25.10;46.57
16100;BME280;8154;50.830;12.082;2022-08-21T10:12:16;99462.34;;;25.12;46.62
16100;BME280;8154;50.830;12.082;2022-08-21T10:15:23;99454.56;;;25.17;46.07
16100;BME280;8154;50.830;12.082;2022-08-21T10:18:20;99457.22;;;25.17;46.22
16100;BME280;8154;50.830;12.082;2022-08-21T10:30:02;99440.75;;;25.20;45.49
16100;BME280;8154;50.830;12.082;2022-08-21T10:45:52;99441.97;;;25.17;45.07
16100;BME280;8154;50.830;12.082;2022-08-21T10:49:14;99439.50;;;25.22;44.95
16100;BME280;8154;50.830;12.082;2022-08-21T10:55:18;99432.91;;;25.25;44.90
16100;BME280;8154;50.830;12.082;2022-08-21T10:58:11;99436.22;;;25.27;44.95
16100;BME280;8154;50.830;12.082;2022-08-21T11:01:00;99448.16;;;25.24;44.80
16100;BME280;8154;50.830;12.082;2022-08-21T11:03:54;99445.06;;;25.21;45.02
16100;BME280;8154;50.830;12.082;2022-08-21T11:06:47;99440.13;;;25.18;45.13
16100;BME280;8154;50.830;12.082;2022-08-21T11:09:33;99442.59;;;25.19;44.73
16100;BME280;8154;50.830;12.082;2022-08-21T11:27:13;99440.53;;;25.15;45.02
16100;BME280;8154;50.830;12.082;2022-08-21T11:30:00;99429.44;;;25.24;44.14
16100;BME280;8154;50.830;12.082;2022-08-21T11:39:02;99417.91;;;25.17;44.33
16100;BME280;8154;50.830;12.082;2022-08-21T11:42:17;99414.00;;;25.20;44.12
16100;BME280;8154;50.830;12.082;2022-08-21T11:45:27;99411.13;;;25.21;44.34
16100;BME280;8154;50.830;12.082;2022-08-21T11:51:48;99410.09;;;25.22;44.00
16100;BME280;8154;50.830;12.082;2022-08-21T11:54:39;99408.44;;;25.21;44.51
16100;BME280;8154;50.830;12.082;2022-08-21T11:57:42;99408.66;;;25.20;44.33
16100;BME280;8154;50.830;12.082;2022-08-21T12:00:36;99406.19;;;25.18;44.12
16100;BME280;8154;50.830;12.082;2022-08-21T12:03:27;99400.00;;;25.18;44.37
16100;BME280;8154;50.830;12.082;2022-08-21T12:06:14;99398.75;;;25.20;44.27
16100;BME280;8154;50.830;12.082;2022-08-21T12:09:07;99402.47;;;25.19;44.22
16100;BME280;8154;50.830;12.082;2022-08-21T12:12:21;99407.19;;;25.24;43.69
16100;BME280;8154;50.830;12.082;2022-08-21T12:15:23;99400.00;;;25.24;43.68
16100;BME280;8154;50.830;12.082;2022-08-21T12:27:13;99395.88;;;25.22;43.58
16100;BME280;8154;50.830;12.082;2022-08-21T12:30:03;99403.91;;;25.22;43.55
16100;BME280;8154;50.830;12.082;2022-08-21T12:33:01;99396.50;;;25.24;43.49
16100;BME280;8154;50.830;12.082;2022-08-21T12:35:47;99393.84;;;25.17;43.24
16100;BME280;8154;50.830;12.082;2022-08-21T12:38:52;99397.75;;;25.21;43.54
16100;BME280;8154;50.830;12.082;2022-08-21T12:45:23;99384.81;;;25.18;43.41
16100;BME280;8154;50.830;12.082;2022-08-21T12:48:31;99376.97;;;25.17;43.03
16100;BME280;8154;50.830;12.082;2022-08-21T12:54:41;99380.25;;;25.19;43.09
16100;BME280;8154;50.830;12.082;2022-08-21T12:57:28;99381.69;;;25.21;43.31
16100;BME280;8154;50.830;12.082;2022-08-21T13:00:13;99372.00;;;25.20;42.97
16100;BME280;8154;50.830;12.082;2022-08-21T13:03:00;99376.56;;;25.20;42.90
16100;BME280;8154;50.830;12.082;2022-08-21T13:05:44;99378.00;;;25.22;43.07
16100;BME280;8154;50.830;12.082;2022-08-21T13:08:30;99379.41;;;25.25;42.63
16100;BME280;8154;50.830;12.082;2022-08-21T13:11:19;99375.53;;;25.21;42.88
16100;BME280;8154;50.830;12.082;2022-08-21T13:14:20;99374.47;;;25.28;42.92
16100;BME280;8154;50.830;12.082;2022-08-21T13:17:06;99373.03;;;25.32;42.67
16100;BME280;8154;50.830;12.082;2022-08-21T13:19:59;99373.66;;;25.28;42.64
16100;BME280;8154;50.830;12.082;2022-08-21T13:22:44;99376.56;;;25.20;42.74
16100;BME280;8154;50.830;12.082;2022-08-21T13:25:35;99373.47;;;25.10;42.98
16100;BME280;8154;50.830;12.082;2022-08-21T13:28:19;99371.22;;;25.13;42.63
16100;BME280;8154;50.830;12.082;2022-08-21T13:31:07;99365.25;;;25.24;42.39
16100;BME280;8154;50.830;12.082;2022-08-21T13:33:54;99369.34;;;25.27;42.13
16100;BME280;8154;50.830;12.082;2022-08-21T13:36:41;99372.44;;;25.24;41.90
16100;BME280;8154;50.830;12.082;2022-08-21T13:39:26;99356.78;;;25.27;41.71
16100;BME280;8154;50.830;12.082;2022-08-21T13:42:12;99365.41;;;25.29;41.55
16100;BME280;8154;50.830;12.082;2022-08-21T13:44:56;99366.69;;;25.33;41.37
16100;BME280;8154;50.830;12.082;2022-08-21T13:47:41;99359.25;;;25.29;41.47
16100;BME280;8154;50.830;12.082;2022-08-21T13:50:27;99360.06;;;25.29;41.83
16100;BME280;8154;50.830;12.082;2022-08-21T13:56:33;99360.06;;;25.29;41.53
16100;BME280;8154;50.830;12.082;2022-08-21T13:59:28;99359.47;;;25.27;41.26
16100;BME280;8154;50.830;12.082;2022-08-21T14:02:20;99363.16;;;25.26;41.17
16100;BME280;8154;50.830;12.082;2022-08-21T14:05:06;99360.06;;;25.29;41.30
16100;BME280;8154;50.830;12.082;2022-08-21T14:08:02;99365.41;;;25.29;41.71
16100;BME280;8154;50.830;12.082;2022-08-21T14:10:51;99369.53;;;25.32;41.25
16100;BME280;8154;50.830;12.082;2022-08-21T14:13:39;99359.69;;;25.26;41.36
16100;BME280;8154;50.830;12.082;2022-08-21T14:16:40;99353.09;;;25.22;41.49
16100;BME280;8154;50.830;12.082;2022-08-21T14:19:42;99362.34;;;25.19;41.34
16100;BME280;8154;50.830;12.082;2022-08-21T14:22:37;99357.44;;;25.16;41.70
16100;BME280;8154;50.830;12.082;2022-08-21T14:31:18;99351.88;;;25.18;41.88
16100;BME280;8154;50.830;12.082;2022-08-21T14:34:03;99345.28;;;25.20;41.61
16100;BME280;8154;50.830;12.082;2022-08-21T14:36:48;99347.34;;;25.18;41.20
16100;BME280;8154;50.830;12.082;2022-08-21T14:39:33;99344.47;;;25.20;41.48
16100;BME280;8154;50.830;12.082;2022-08-21T14:42:17;99341.59;;;25.15;41.43
16100;BME280;8154;50.830;12.082;2022-08-21T14:45:10;99328.22;;;25.15;41.48
16100;BME280;8154;50.830;12.082;2022-08-21T14:47:58;99337.44;;;25.19;41.15
16100;BME280;8154;50.830;12.082;2022-08-21T14:50:43;99332.50;;;25.22;41.05
16100;BME280;8154;50.830;12.082;2022-08-21T14:53:27;99332.50;;;25.22;41.11
16100;BME280;8154;50.830;12.082;2022-08-21T14:56:12;99335.19;;;25.22;41.47
16100;BME280;8154;50.830;12.082;2022-08-21T14:59:03;99334.97;;;25.24;41.62
16100;BME280;8154;50.830;12.082;2022-08-21T15:01:49;99332.50;;;25.22;41.25
16100;BME280;8154;50.830;12.082;2022-08-21T15:04:34;99338.91;;;25.21;41.10
16100;BME280;8154;50.830;12.082;2022-08-21T15:07:18;99334.97;;;25.24;41.10
16100;BME280;8154;50.830;12.082;2022-08-21T15:10:03;99333.94;;;25.25;40.87
16100;BME280;8154;50.830;12.082;2022-08-21T15:12:47;99333.13;;;25.24;40.87
16100;BME280;8154;50.830;12.082;2022-08-21T15:15:44;99325.75;;;25.20;41.10
16100;BME280;8154;50.830;12.082;2022-08-21T15:18:30;99325.91;;;25.25;41.14
16100;BME280;8154;50.830;12.082;2022-08-21T15:21:14;99326.31;;;25.28;41.24
16100;BME280;8154;50.830;12.082;2022-08-21T15:23:59;99323.84;;;25.27;41.10
16100;BME280;8154;50.830;12.082;2022-08-21T15:26:44;99323.50;;;25.17;41.20
16100;BME280;8154;50.830;12.082;2022-08-21T15:29:31;99322.25;;;25.19;41.18
16100;BME280;8154;50.830;12.082;2022-08-21T15:32:26;99321.19;;;25.27;41.29
16100;BME280;8154;50.830;12.082;2022-08-21T15:35:12;99321.19;;;25.20;41.29
16100;BME280;8154;50.830;12.082;2022-08-21T15:37:56;99322.84;;;25.21;40.95
16100;BME280;8154;50.830;12.082;2022-08-21T15:40:42;99323.88;;;25.20;41.27
16100;BME280;8154;50.830;12.082;2022-08-21T15:43:29;99333.97;;;25.18;41.36
16100;BME280;8154;50.830;12.082;2022-08-21T15:46:16;99324.72;;;25.14;41.36
16100;BME280;8154;50.830;12.082;2022-08-21T15:49:01;99324.31;;;25.11;41.34
16100;BME280;8154;50.830;12.082;2022-08-21T15:51:45;99325.97;;;25.12;41.22
16100;BME280;8154;50.830;12.082;2022-08-21T15:54:29;99317.72;;;25.20;40.94
16100;BME280;8154;50.830;12.082;2022-08-21T15:57:16;99318.16;;;25.17;41.22
16100;BME280;8154;50.830;12.082;2022-08-21T16:00:11;99327.59;;;25.19;41.13
16100;BME280;8154;50.830;12.082;2022-08-21T16:02:59;99324.28;;;25.17;41.25
16100;BME280;8154;50.830;12.082;2022-08-21T16:05:44;99311.13;;;25.16;41.03
16100;BME280;8154;50.830;12.082;2022-08-21T16:08:32;99310.72;;;25.19;40.83
16100;BME280;8154;50.830;12.082;2022-08-21T16:11:16;99310.91;;;25.17;40.82
16100;BME280;8154;50.830;12.082;2022-08-21T16:14:01;99310.34;;;25.15;41.13
16100;BME280;8154;50.830;12.082;2022-08-21T16:16:45;99314.44;;;25.18;40.79
16100;BME280;8154;50.830;12.082;2022-08-21T16:19:29;99311.94;;;25.23;40.67
16100;BME280;8154;50.830;12.082;2022-08-21T16:22:14;99310.91;;;25.17;40.77
16100;BME280;8154;50.830;12.082;2022-08-21T16:24:58;99306.59;;;25.23;40.94